Terminal Aerodrome Forecast
Issued by NWS La Crosse, WI

Home | Current Version | Previous Version | Text Only | Print | Product List | Glossary On
Versions: 1 2 3 4 5 6 7 8 9 10 11 12 13 14 15 16 17 18 19 20 21 22 23 24 25 26 27 28 29 30 31 32 33 34
000
FTUS43 KARX 181732
TAFRST
TAF
KRST 181732Z 1818/1918 16027G40KT P6SM BKN120 WS020/19060KT
     FM190000 19018G25KT P6SM BKN120 WS020/21055KT
     FM190400 20010KT P6SM SCT040
     FM190800 30007KT P6SM OVC020
     FM191000 02010KT 3SM -FZRA OVC007=

USA.gov is the U.S. government's official web portal to all federal, state and local government web resources and services.